Storm Events Database

Event Details

Event Hail
Magnitude 1.00 in.
State OKLAHOMA
County/Area MCCLAIN
WFO OUN
Begin Date 05/01/2008 23:43:00 CST-6
Begin Range 4
Begin Azimuth WNW
Begin Location NEWCASTLE
Begin Lat/Lon 35.27/-97.67
End Date 05/01/2008 23:43:00 CST-6
Deaths Direct/Indirect 0/0 (fatality details below, when available...)
Injuries Direct/Indirect 0/0
Property Damage 0.00K
Crop Damage 0.00K
Episode Narrative A cold front moved southeast into northern Oklahoma late in the evening of the 1st. Also, a dry line retreated slowly westward into west central Oklahoma. Thunderstorms developed along the cold front, but generally stayed below severe levels. More intense thunderstorms developed near the dry line and cold front intersection, and continued building south into central and southern Oklahoma. Large hail and gusty winds were reported along the developing squall line, with some minor wind damage reported. Monetary damages were estimated.
Event Narrative


All events for this episode:

Location County/Zone St. Date Time T.Z. Type Mag Dth Inj PrD CrD
Totals: 0 0 24.70K 0.00K
WAKITA GRANT CO. OK 05/01/2008 21:35 CST-6 Hail 0.88 in. 0 0 0.00K 0.00K
KREMLIN GARFIELD CO. OK 05/01/2008 21:55 CST-6 Hail 0.75 in. 0 0 0.00K 0.00K
HAYWARD GARFIELD CO. OK 05/01/2008 22:45 CST-6 Thunderstorm Wind 56 kts. EG 0 0 2.40K 0.00K
DOVER KINGFISHER CO. OK 05/01/2008 22:55 CST-6 Hail 1.00 in. 0 0 0.00K 0.00K
RED ROCK NOBLE CO. OK 05/01/2008 23:15 CST-6 Thunderstorm Wind 53 kts. MG 0 0 0.00K 0.00K
PERRY NOBLE CO. OK 05/01/2008 23:15 CST-6 Hail 0.88 in. 0 0 0.00K 0.00K
YUKON CANADIAN CO. OK 05/01/2008 23:23 CST-6 Hail 1.25 in. 0 0 0.00K 0.00K
MERIDIAN LOGAN CO. OK 05/01/2008 23:30 CST-6 Thunderstorm Wind 56 kts. EG 0 0 2.40K 0.00K
EDMOND OKLAHOMA CO. OK 05/01/2008 23:30 CST-6 Thunderstorm Wind 61 kts. EG 0 0 10.00K 0.00K
BETHANY OKLAHOMA CO. OK 05/01/2008 23:30 CST-6 Hail 0.75 in. 0 0 0.00K 0.00K
(OKC)WILL ROGERS APT OKLAHOMA CO. OK 05/01/2008 23:31 CST-6 Thunderstorm Wind 64 kts. MG 0 0 0.00K 0.00K
EDMOND OKLAHOMA CO. OK 05/01/2008 23:31 CST-6 Hail 0.75 in. 0 0 0.00K 0.00K
NEWCASTLE MCCLAIN CO. OK 05/01/2008 23:43 CST-6 Hail 1.00 in. 0 0 0.00K 0.00K
MIDDLEBERG GRADY CO. OK 05/01/2008 23:46 CST-6 Hail 1.00 in. 0 0 0.00K 0.00K
OKLAHOMA CITY OKLAHOMA CO. OK 05/01/2008 23:52 CST-6 Hail 0.75 in. 0 0 0.00K 0.00K
MOORE CLEVELAND CO. OK 05/01/2008 23:55 CST-6 Hail 1.00 in. 0 0 0.00K 0.00K
NORMAN CLEVELAND CO. OK 05/01/2008 23:55 CST-6 Hail 1.00 in. 0 0 0.00K 0.00K
CUSHING PAYNE CO. OK 05/01/2008 23:56 CST-6 Hail 0.75 in. 0 0 0.00K 0.00K
NORMAN CLEVELAND CO. OK 05/02/2008 00:05 CST-6 Hail 1.39 in. 0 0 0.00K 0.00K
NORMAN CLEVELAND CO. OK 05/02/2008 00:07 CST-6 Hail 1.00 in. 0 0 0.00K 0.00K
(OUN)NORMAN WESTHEIMER ARPT CLEVELAND CO. OK 05/02/2008 00:07 CST-6 Hail 1.50 in. 0 0 0.00K 0.00K
TECUMSEH POTTAWATOMIE CO. OK 05/02/2008 00:13 CST-6 Hail 0.88 in. 0 0 0.00K 0.00K
RYAN JEFFERSON CO. OK 05/02/2008 00:40 CST-6 Thunderstorm Wind 56 kts. EG 0 0 2.40K 0.00K
PINK POTTAWATOMIE CO. OK 05/02/2008 00:42 CST-6 Hail 0.88 in. 0 0 0.00K 0.00K
CROMWELL SEMINOLE CO. OK 05/02/2008 01:23 CST-6 Hail 1.00 in. 0 0 0.00K 0.00K
WETUMKA HUGHES CO. OK 05/02/2008 01:55 CST-6 Thunderstorm Wind 61 kts. EG 0 0 6.00K 0.00K
DUSTIN HUGHES CO. OK 05/02/2008 02:10 CST-6 Thunderstorm Wind 61 kts. EG 0 0 1.50K 0.00K
Totals: 0 0 24.70K 0.00K